map of MUX home
MUX - Airport
Location
City:  Multan, Punjab, Pakistan
Name:Multan International Airport
ICAO:OPMT
IATA:MUX

Details
Type:Airport (Aerodrome, Airfield)
Use:Public/Civil, International (customs port of entry)
Latitude:3012'12"N (30.203222)
Longitude:7125'09"E (71.419111)
Datum:WGS 1984
Elevation:403 ft (123 m)
Variation:1.97E (WMM2015 magnetic declination)
0.06 annual change
Runways:1
Longest:9046 × 98 ft (2757 × 30 m), paved

Time
Time Zone:UTC+5
Local Time:

Weather
METAR:OPMT 170700Z 05006KT 4000 HZ NSC 29/15 Q1012 NOSIG

Related Locations
Nearby:
Farthest:IPC: 12215 mi / 19659 km
Easter Island (Isla de Pascua, Rapa Nui) [Mataveri Intl], VS, CL

Find:

   beyond  
but within

Other Information
Maps:
NOTAMs:
Links:
Sources:

  
  • flag of Pakistan
  • flag of Punjab
  

Sectional Chart

Flight Planning
at skyvector.com

Satellite Image

Google Maps Satellite view

 

Copyright © 2004-2018 Karl L. Swartz. All rights reserved.
The Great Circle Mapper name and logo are trademarks of the Great Circle Mapper.
All other trademarks mentioned herein belong to their respective owners.
Please see credits for attibutions and further copyright information.

  Follow gcmap on Facebook Follow gcmap on Twitter Follow gcmap on Google+ GCmap on LinkedIn

hCard Microformat

Geo Microformat